createdAt,value
2019-02-08T00:00:07.980Z,1007.63
2019-02-08T00:01:08.012Z,1007.63
2019-02-08T00:02:07.950Z,1007.58
2019-02-08T00:03:07.943Z,1007.58
2019-02-08T00:04:07.933Z,1007.65
2019-02-08T00:05:07.930Z,1007.57
2019-02-08T00:06:07.907Z,1007.62
2019-02-08T00:07:07.914Z,1007.64
2019-02-08T00:08:07.895Z,1007.65
2019-02-08T00:09:07.876Z,1007.65
2019-02-08T00:10:07.872Z,1007.67
2019-02-08T00:11:07.860Z,1007.71
2019-02-08T00:12:07.891Z,1007.67
2019-02-08T00:13:07.841Z,1007.69
2019-02-08T00:14:07.833Z,1007.68
2019-02-08T00:15:07.819Z,1007.65
2019-02-08T00:16:07.807Z,1007.68
2019-02-08T00:17:07.799Z,1007.69
2019-02-08T00:18:07.821Z,1007.71
2019-02-08T00:19:07.776Z,1007.70
2019-02-08T00:20:07.768Z,1007.71
2019-02-08T00:21:07.757Z,1007.75
2019-02-08T00:22:07.744Z,1007.68
2019-02-08T00:23:07.737Z,1007.72
2019-02-08T00:24:07.732Z,1007.70
2019-02-08T00:25:07.716Z,1007.74
2019-02-08T00:26:07.705Z,1007.73
2019-02-08T00:27:07.699Z,1007.76
2019-02-08T00:28:07.692Z,1007.75
2019-02-08T00:29:07.680Z,1007.79
2019-02-08T00:30:07.668Z,1007.76
2019-02-08T00:31:07.647Z,1007.78
2019-02-08T00:32:07.642Z,1007.80
2019-02-08T00:33:07.627Z,1007.81
2019-02-08T00:34:07.629Z,1007.83
2019-02-08T00:35:07.609Z,1007.83
2019-02-08T00:36:07.591Z,1007.81
2019-02-08T00:37:07.581Z,1007.80
2019-02-08T00:38:07.576Z,1007.80
2019-02-08T00:39:07.571Z,1007.80
2019-02-08T00:40:07.550Z,1007.80
2019-02-08T00:41:07.540Z,1007.78
2019-02-08T00:42:07.528Z,1007.80
2019-02-08T00:43:07.523Z,1007.83
2019-02-08T00:44:07.531Z,1007.82
2019-02-08T00:45:07.498Z,1007.81
2019-02-08T00:46:07.487Z,1007.79
2019-02-08T00:47:07.477Z,1007.82
2019-02-08T00:48:07.471Z,1007.78
2019-02-08T00:49:07.456Z,1007.76
2019-02-08T00:50:07.464Z,1007.84
2019-02-08T00:51:07.443Z,1007.85
2019-02-08T00:52:07.429Z,1007.82
2019-02-08T00:53:07.422Z,1007.85
2019-02-08T00:54:07.409Z,1007.86
2019-02-08T00:55:07.424Z,1007.90
2019-02-08T00:56:07.384Z,1007.90
2019-02-08T00:57:07.376Z,1007.86
2019-02-08T00:58:07.360Z,1007.88
2019-02-08T00:59:07.358Z,1007.92
2019-02-08T01:00:07.339Z,1007.87
2019-02-08T01:01:07.340Z,1007.89
2019-02-08T01:02:08.901Z,1007.90
2019-02-08T01:03:07.313Z,1007.93
2019-02-08T01:04:07.303Z,1007.95
2019-02-08T01:05:07.295Z,1007.93
2019-02-08T01:06:07.285Z,1007.92
2019-02-08T01:07:07.280Z,1007.96
2019-02-08T01:08:07.269Z,1007.98
2019-02-08T01:09:07.289Z,1007.99
2019-02-08T01:10:07.243Z,1007.96
2019-02-08T01:11:07.233Z,1007.98
2019-02-08T01:12:07.228Z,1008.02
2019-02-08T01:13:07.205Z,1008.02
2019-02-08T01:14:07.195Z,1007.99
2019-02-08T01:15:07.195Z,1008.03
2019-02-08T01:16:07.176Z,1008.05
2019-02-08T01:17:07.164Z,1008.05
2019-02-08T01:18:07.196Z,1007.98
2019-02-08T01:19:07.141Z,1008.03
2019-02-08T01:20:07.138Z,1008.00
2019-02-08T01:21:07.136Z,1008.01
2019-02-08T01:22:07.113Z,1008.11
2019-02-08T01:23:07.107Z,1008.04
2019-02-08T01:24:07.103Z,1008.02
2019-02-08T01:25:07.080Z,1008.02
2019-02-08T01:26:07.068Z,1008.02
2019-02-08T01:27:07.059Z,1008.05
2019-02-08T01:28:07.054Z,1008.03
2019-02-08T01:29:07.046Z,1008.03
2019-02-08T01:30:07.033Z,1008.02
2019-02-08T01:31:07.022Z,1007.99
2019-02-08T01:32:07.022Z,1007.99
2019-02-08T01:33:07.002Z,1007.98
2019-02-08T01:34:06.988Z,1007.99
2019-02-08T01:35:06.981Z,1008.01
2019-02-08T01:36:06.979Z,1008.01
2019-02-08T01:37:06.956Z,1008.00
2019-02-08T01:38:06.952Z,1008.03
2019-02-08T01:39:06.951Z,1008.06
2019-02-08T01:40:06.930Z,1008.03
2019-02-08T01:41:06.927Z,1008.08
2019-02-08T01:42:06.909Z,1008.09
2019-02-08T01:43:06.930Z,1008.07
2019-02-08T01:44:06.884Z,1008.07
2019-02-08T01:45:06.877Z,1008.11
2019-02-08T01:46:06.864Z,1008.09
2019-02-08T01:47:06.852Z,1008.13
2019-02-08T01:48:06.855Z,1008.10
2019-02-08T01:49:06.849Z,1008.17
2019-02-08T01:50:06.829Z,1008.15
2019-02-08T01:51:06.814Z,1008.16
2019-02-08T01:52:06.798Z,1008.19
2019-02-08T01:53:06.846Z,1008.19
2019-02-08T01:54:06.781Z,1008.21
2019-02-08T01:55:06.782Z,1008.16
2019-02-08T01:56:06.767Z,1008.17
2019-02-08T01:57:06.752Z,1008.18
2019-02-08T01:58:06.748Z,1008.20
2019-02-08T01:59:06.726Z,1008.20
2019-02-08T02:00:06.716Z,1008.20
2019-02-08T02:01:06.719Z,1008.14
2019-02-08T02:02:06.700Z,1008.17
2019-02-08T02:03:06.686Z,1008.16
2019-02-08T02:04:06.679Z,1008.19
2019-02-08T02:05:06.669Z,1008.20
2019-02-08T02:06:06.667Z,1008.17
2019-02-08T02:07:06.650Z,1008.18
2019-02-08T02:08:06.632Z,1008.14
2019-02-08T02:09:06.639Z,1008.17
2019-02-08T02:10:06.619Z,1008.17
2019-02-08T02:11:06.611Z,1008.18
2019-02-08T02:12:06.598Z,1008.14
2019-02-08T02:13:06.597Z,1008.20
2019-02-08T02:14:14.524Z,1008.21
2019-02-08T02:15:06.579Z,1008.24
2019-02-08T02:16:06.555Z,1008.18
2019-02-08T02:17:06.545Z,1008.22
2019-02-08T02:18:06.543Z,1008.21
2019-02-08T02:19:06.528Z,1008.24
2019-02-08T02:20:06.512Z,1008.25
2019-02-08T02:21:06.517Z,1008.26
2019-02-08T02:22:06.487Z,1008.26
2019-02-08T02:23:06.478Z,1008.27
2019-02-08T02:24:06.472Z,1008.22
2019-02-08T02:25:06.465Z,1008.32
2019-02-08T02:26:06.454Z,1008.27
2019-02-08T02:27:06.442Z,1008.34
2019-02-08T02:28:06.431Z,1008.33
2019-02-08T02:29:06.432Z,1008.34
2019-02-08T02:30:06.411Z,1008.40
2019-02-08T02:31:06.414Z,1008.40
2019-02-08T02:32:06.389Z,1008.41
2019-02-08T02:33:06.375Z,1008.39
2019-02-08T02:34:06.370Z,1008.43
2019-02-08T02:35:06.356Z,1008.42
2019-02-08T02:36:06.345Z,1008.43
2019-02-08T02:37:06.352Z,1008.44
2019-02-08T02:38:06.329Z,1008.39
2019-02-08T02:39:06.318Z,1008.43
2019-02-08T02:40:06.319Z,1008.42
2019-02-08T02:41:06.298Z,1008.46
2019-02-08T02:42:06.295Z,1008.45
2019-02-08T02:43:06.286Z,1008.48
2019-02-08T02:44:06.273Z,1008.44
2019-02-08T02:45:06.256Z,1008.45
2019-02-08T02:46:06.239Z,1008.45
2019-02-08T02:47:06.237Z,1008.46
2019-02-08T02:48:06.226Z,1008.48
2019-02-08T02:49:06.212Z,1008.46
2019-02-08T02:50:06.241Z,1008.45
2019-02-08T02:51:06.186Z,1008.41
2019-02-08T02:52:06.176Z,1008.49
2019-02-08T02:53:06.171Z,1008.48
2019-02-08T02:54:06.166Z,1008.47
2019-02-08T02:55:06.145Z,1008.47
2019-02-08T02:56:06.144Z,1008.43
2019-02-08T02:57:06.124Z,1008.43
2019-02-08T02:58:06.154Z,1008.45
2019-02-08T02:59:06.105Z,1008.45
2019-02-08T03:00:06.098Z,1008.46
2019-02-08T03:01:06.084Z,1008.43
2019-02-08T03:02:06.078Z,1008.40
2019-02-08T03:03:06.071Z,1008.42
2019-02-08T03:04:06.066Z,1008.44
2019-02-08T03:05:06.047Z,1008.40
2019-02-08T03:06:06.035Z,1008.40
2019-02-08T03:07:06.023Z,1008.40
2019-02-08T03:08:06.017Z,1008.41
2019-02-08T03:09:06.011Z,1008.42
2019-02-08T03:10:05.999Z,1008.39
2019-02-08T03:11:05.994Z,1008.44
2019-02-08T03:12:05.972Z,1008.38
2019-02-08T03:13:05.960Z,1008.40
2019-02-08T03:14:05.966Z,1008.38
2019-02-08T03:15:05.948Z,1008.38
2019-02-08T03:16:05.938Z,1008.37
2019-02-08T03:17:05.927Z,1008.36
2019-02-08T03:18:05.919Z,1008.32
2019-02-08T03:19:05.900Z,1008.36
2019-02-08T03:20:05.893Z,1008.36
2019-02-08T03:21:05.879Z,1008.39
2019-02-08T03:22:05.879Z,1008.39
2019-02-08T03:23:05.853Z,1008.44
2019-02-08T03:24:12.935Z,1008.40
2019-02-08T03:25:06.835Z,1008.40
2019-02-08T03:26:05.824Z,1008.38
2019-02-08T03:27:05.826Z,1008.42
2019-02-08T03:28:05.824Z,1008.42
2019-02-08T03:29:05.802Z,1008.44
2019-02-08T03:30:05.787Z,1008.48
2019-02-08T03:31:05.779Z,1008.47
2019-02-08T03:32:05.762Z,1008.48
2019-02-08T03:33:05.765Z,1008.52
2019-02-08T03:34:05.742Z,1008.43
2019-02-08T03:35:05.734Z,1008.45
2019-02-08T03:36:05.731Z,1008.47
2019-02-08T03:37:05.714Z,1008.47
2019-02-08T03:38:05.708Z,1008.45
2019-02-08T03:39:05.691Z,1008.49
2019-02-08T03:40:05.690Z,1008.49
2019-02-08T03:41:05.670Z,1008.53
2019-02-08T03:42:05.665Z,1008.55
2019-02-08T03:43:05.646Z,1008.51
2019-02-08T03:44:05.637Z,1008.53
2019-02-08T03:45:05.633Z,1008.52
2019-02-08T03:46:05.617Z,1008.54
2019-02-08T03:47:05.614Z,1008.57
2019-02-08T03:48:05.603Z,1008.55
2019-02-08T03:49:05.580Z,1008.55
2019-02-08T03:50:05.573Z,1008.55
2019-02-08T03:51:05.558Z,1008.53
2019-02-08T03:52:05.550Z,1008.54
2019-02-08T03:53:05.582Z,1008.60
2019-02-08T03:54:05.533Z,1008.60
2019-02-08T03:55:05.521Z,1008.62
2019-02-08T03:56:05.507Z,1008.62
2019-02-08T03:57:05.496Z,1008.64
2019-02-08T03:58:05.489Z,1008.58
2019-02-08T03:59:05.485Z,1008.57
2019-02-08T04:00:05.470Z,1008.59
2019-02-08T04:01:05.458Z,1008.58
2019-02-08T04:02:05.451Z,1008.56
2019-02-08T04:03:05.439Z,1008.50
2019-02-08T04:04:05.423Z,1008.55
2019-02-08T04:05:05.422Z,1008.59
2019-02-08T04:06:05.409Z,1008.61
2019-02-08T04:07:05.395Z,1008.60
2019-02-08T04:08:05.385Z,1008.67
2019-02-08T04:09:05.370Z,1008.63
2019-02-08T04:10:05.391Z,1008.68
2019-02-08T04:11:05.355Z,1008.65
2019-02-08T04:12:05.349Z,1008.68
2019-02-08T04:13:05.332Z,1008.69
2019-02-08T04:14:05.330Z,1008.68
2019-02-08T04:15:05.312Z,1008.66
2019-02-08T04:16:05.314Z,1008.67
2019-02-08T04:17:05.299Z,1008.69
2019-02-08T04:18:05.283Z,1008.71
2019-02-08T04:19:05.271Z,1008.74
2019-02-08T04:20:05.272Z,1008.73
2019-02-08T04:21:05.284Z,1008.77
2019-02-08T04:22:05.239Z,1008.83
2019-02-08T04:23:05.225Z,1008.80
2019-02-08T04:24:05.221Z,1008.75
2019-02-08T04:25:05.210Z,1008.82
2019-02-08T04:26:05.203Z,1008.77
2019-02-08T04:27:05.192Z,1008.79
2019-02-08T04:28:05.174Z,1008.83
2019-02-08T04:29:05.163Z,1008.84
2019-02-08T04:30:05.167Z,1008.85
2019-02-08T04:31:05.152Z,1008.85
2019-02-08T04:32:05.139Z,1008.86
2019-02-08T04:33:05.127Z,1008.90
2019-02-08T04:34:05.110Z,1008.78
2019-02-08T04:35:05.106Z,1008.88
2019-02-08T04:36:05.110Z,1008.80
2019-02-08T04:37:05.079Z,1008.77
2019-02-08T04:38:05.077Z,1008.78
2019-02-08T04:39:05.065Z,1008.81
2019-02-08T04:40:05.049Z,1008.83
2019-02-08T04:41:05.047Z,1008.82
2019-02-08T04:42:05.033Z,1008.83
2019-02-08T04:43:05.022Z,1008.85
2019-02-08T04:44:05.007Z,1008.86
2019-02-08T04:45:05.002Z,1008.86
2019-02-08T04:46:04.998Z,1008.82
2019-02-08T04:47:04.999Z,1008.83
2019-02-08T04:48:04.967Z,1008.80
2019-02-08T04:49:04.959Z,1008.85
2019-02-08T04:50:04.949Z,1008.87
2019-02-08T04:51:04.976Z,1008.92
2019-02-08T04:52:04.930Z,1008.92
2019-02-08T04:53:04.916Z,1008.88
2019-02-08T04:54:04.904Z,1008.88
2019-02-08T04:55:04.896Z,1008.91
2019-02-08T04:56:04.889Z,1008.89
2019-02-08T04:57:04.883Z,1008.98
2019-02-08T04:58:04.867Z,1008.94
2019-02-08T04:59:04.858Z,1008.95
2019-02-08T05:00:04.851Z,1009.01
2019-02-08T05:01:04.837Z,1009.00
2019-02-08T05:02:04.829Z,1008.95
2019-02-08T05:03:04.815Z,1009.03
2019-02-08T05:04:04.801Z,1008.98
2019-02-08T05:05:04.809Z,1008.99
2019-02-08T05:06:04.784Z,1008.95
2019-02-08T05:07:04.788Z,1008.98
2019-02-08T05:08:04.762Z,1009.08
2019-02-08T05:09:04.754Z,1009.04
2019-02-08T05:10:04.744Z,1009.05
2019-02-08T05:11:04.727Z,1009.00
2019-02-08T05:12:04.720Z,1009.04
2019-02-08T05:13:04.714Z,1008.98
2019-02-08T05:14:04.711Z,1008.95
2019-02-08T05:15:04.697Z,1008.93
2019-02-08T05:16:04.674Z,1008.98
2019-02-08T05:17:04.671Z,1009.03
2019-02-08T05:18:04.655Z,1008.99
2019-02-08T05:19:04.645Z,1009.01
2019-02-08T05:20:04.675Z,1008.95
2019-02-08T05:21:04.631Z,1009.00
2019-02-08T05:22:04.611Z,1009.02
2019-02-08T05:23:04.600Z,1009.00
2019-02-08T05:24:04.596Z,1009.02
2019-02-08T05:25:04.593Z,1009.01
2019-02-08T05:26:04.581Z,1009.07
2019-02-08T05:27:04.562Z,1009.05
2019-02-08T05:28:04.556Z,1009.06
2019-02-08T05:29:04.539Z,1009.09
2019-02-08T05:30:04.536Z,1009.07
2019-02-08T05:31:04.534Z,1009.08
2019-02-08T05:32:04.513Z,1009.11
2019-02-08T05:33:04.502Z,1009.11
2019-02-08T05:34:04.500Z,1009.06
2019-02-08T05:35:04.477Z,1009.08
2019-02-08T05:36:04.478Z,1009.15
2019-02-08T05:37:04.457Z,1009.08
2019-02-08T05:38:04.451Z,1009.14
2019-02-08T05:39:04.438Z,1009.13
2019-02-08T05:40:04.427Z,1009.14
2019-02-08T05:41:04.426Z,1009.13
2019-02-08T05:42:04.418Z,1009.13
2019-02-08T05:43:04.402Z,1009.12
2019-02-08T05:44:04.382Z,1009.13
2019-02-08T05:45:04.377Z,1009.10
2019-02-08T05:46:04.366Z,1009.16
2019-02-08T05:47:04.365Z,1009.13
2019-02-08T05:48:04.353Z,1009.10
2019-02-08T05:49:04.331Z,1009.15
2019-02-08T05:50:04.329Z,1009.06
2019-02-08T05:51:04.315Z,1009.13
2019-02-08T05:52:05.970Z,1009.11
2019-02-08T05:53:04.338Z,1009.14
2019-02-08T05:54:04.292Z,1009.18
2019-02-08T05:55:04.271Z,1009.15
2019-02-08T05:56:04.270Z,1009.11
2019-02-08T05:57:04.247Z,1009.12
2019-02-08T05:58:04.238Z,1009.17
2019-02-08T05:59:04.242Z,1009.16
2019-02-08T06:00:04.216Z,1009.14
2019-02-08T06:01:04.206Z,1009.14
2019-02-08T06:02:04.213Z,1009.15
2019-02-08T06:03:04.196Z,1009.14
2019-02-08T06:04:04.187Z,1009.13
2019-02-08T06:05:04.164Z,1009.16
2019-02-08T06:06:04.156Z,1009.16
2019-02-08T06:07:04.143Z,1009.20
2019-02-08T06:08:04.147Z,1009.20
2019-02-08T06:09:04.139Z,1009.18
2019-02-08T06:10:04.117Z,1009.19
2019-02-08T06:11:04.135Z,1009.18
2019-02-08T06:12:04.092Z,1009.16
2019-02-08T06:13:04.102Z,1009.23
2019-02-08T06:14:04.073Z,1009.20
2019-02-08T06:15:04.064Z,1009.29
2019-02-08T06:16:04.073Z,1009.17
2019-02-08T06:17:04.042Z,1009.23
2019-02-08T06:18:04.035Z,1009.24
2019-02-08T06:19:04.024Z,1009.22
2019-02-08T06:20:04.019Z,1009.26
2019-02-08T06:21:04.000Z,1009.25
2019-02-08T06:22:03.993Z,1009.30
2019-02-08T06:23:03.983Z,1009.29
2019-02-08T06:24:03.974Z,1009.29
2019-02-08T06:25:04.600Z,1009.27
2019-02-08T06:26:03.953Z,1009.31
2019-02-08T06:27:03.936Z,1009.35
2019-02-08T06:28:03.927Z,1009.30
2019-02-08T06:29:03.917Z,1009.43
2019-02-08T06:30:03.928Z,1009.35
2019-02-08T06:31:03.913Z,1009.35
2019-02-08T06:32:03.883Z,1009.40
2019-02-08T06:33:03.874Z,1009.32
2019-02-08T06:34:03.875Z,1009.38
2019-02-08T06:35:03.859Z,1009.41
2019-02-08T06:36:03.853Z,1009.39
2019-02-08T06:37:03.839Z,1009.45
2019-02-08T06:38:03.826Z,1009.42
2019-02-08T06:39:03.818Z,1009.43
2019-02-08T06:40:03.810Z,1009.42
2019-02-08T06:41:03.810Z,1009.45
2019-02-08T06:42:03.795Z,1009.47
2019-02-08T06:43:03.778Z,1009.47
2019-02-08T06:44:03.765Z,1009.45
2019-02-08T06:45:03.754Z,1009.48
2019-02-08T06:46:03.750Z,1009.50
2019-02-08T06:47:03.746Z,1009.49
2019-02-08T06:48:03.725Z,1009.48
2019-02-08T06:49:03.709Z,1009.46
2019-02-08T06:50:03.700Z,1009.47
2019-02-08T06:51:04.215Z,1009.43
2019-02-08T06:52:03.726Z,1009.42
2019-02-08T06:53:03.672Z,1009.43
2019-02-08T06:54:03.662Z,1009.42
2019-02-08T06:55:10.435Z,1009.44
2019-02-08T06:56:04.641Z,1009.49
2019-02-08T06:57:03.630Z,1009.45
2019-02-08T06:58:03.625Z,1009.51
2019-02-08T06:59:03.615Z,1009.51
2019-02-08T07:00:03.600Z,1009.56
2019-02-08T07:01:03.593Z,1009.58
2019-02-08T07:02:03.576Z,1009.60
2019-02-08T07:03:03.599Z,1009.60
2019-02-08T07:04:03.560Z,1009.58
2019-02-08T07:05:03.543Z,1009.58
2019-02-08T07:06:03.538Z,1009.59
2019-02-08T07:07:03.522Z,1009.66
2019-02-08T07:08:03.512Z,1009.63
2019-02-08T07:09:03.510Z,1009.59
2019-02-08T07:10:03.491Z,1009.59
2019-02-08T07:11:03.495Z,1009.60
2019-02-08T07:12:03.476Z,1009.64
2019-02-08T07:13:03.465Z,1009.64
2019-02-08T07:14:03.462Z,1009.69
2019-02-08T07:15:03.439Z,1009.68
2019-02-08T07:16:03.427Z,1009.66
2019-02-08T07:17:03.428Z,1009.71
2019-02-08T07:18:03.416Z,1009.75
2019-02-08T07:19:03.432Z,1009.73
2019-02-08T07:20:03.386Z,1009.72
2019-02-08T07:21:03.375Z,1009.78
2019-02-08T07:22:03.377Z,1009.71
2019-02-08T07:23:03.386Z,1009.73
2019-02-08T07:24:03.373Z,1009.72
2019-02-08T07:25:03.349Z,1009.70
2019-02-08T07:26:03.330Z,1009.73
2019-02-08T07:27:03.313Z,1009.75
2019-02-08T07:28:03.303Z,1009.71
2019-02-08T07:29:03.303Z,1009.68
2019-02-08T07:30:03.295Z,1009.70
2019-02-08T07:31:03.283Z,1009.65
2019-02-08T07:32:03.272Z,1009.64
2019-02-08T07:33:03.252Z,1009.66
2019-02-08T07:34:03.241Z,1009.68
2019-02-08T07:35:03.241Z,1009.66
2019-02-08T07:36:03.270Z,1009.67
2019-02-08T07:37:03.215Z,1009.69
2019-02-08T07:38:03.204Z,1009.72
2019-02-08T07:39:03.188Z,1009.75
2019-02-08T07:40:03.184Z,1009.73
2019-02-08T07:41:03.178Z,1009.72
2019-02-08T07:42:03.172Z,1009.76
2019-02-08T07:43:03.147Z,1009.76
2019-02-08T07:44:03.137Z,1009.82
2019-02-08T07:45:03.138Z,1009.85
2019-02-08T07:46:03.118Z,1009.80
2019-02-08T07:47:03.106Z,1009.80
2019-02-08T07:48:03.095Z,1009.81
2019-02-08T07:49:03.088Z,1009.79
2019-02-08T07:50:03.094Z,1009.81
2019-02-08T07:51:03.071Z,1009.84
2019-02-08T07:52:03.059Z,1009.91
2019-02-08T07:53:03.046Z,1009.89
2019-02-08T07:54:03.031Z,1009.88
2019-02-08T07:55:03.025Z,1009.88
2019-02-08T07:56:03.025Z,1009.89
2019-02-08T07:57:03.001Z,1009.85
2019-02-08T07:58:03.025Z,1009.87
2019-02-08T07:59:02.978Z,1009.95
2019-02-08T08:00:02.974Z,1009.90
2019-02-08T08:01:02.958Z,1010.00
2019-02-08T08:02:02.955Z,1009.89
2019-02-08T08:03:02.942Z,1009.95
2019-02-08T08:04:02.953Z,1009.90
2019-02-08T08:05:02.954Z,1009.92
2019-02-08T08:06:02.907Z,1009.94
2019-02-08T08:07:02.905Z,1009.93
2019-02-08T08:08:02.892Z,1009.96
2019-02-08T08:09:02.879Z,1009.93
2019-02-08T08:10:02.870Z,1009.91
2019-02-08T08:11:02.868Z,1009.87
2019-02-08T08:12:02.842Z,1009.91
2019-02-08T08:13:02.833Z,1009.92
2019-02-08T08:14:02.824Z,1009.89
2019-02-08T08:15:10.548Z,1009.84
2019-02-08T08:16:02.807Z,1009.86
2019-02-08T08:17:02.805Z,1009.90
2019-02-08T08:18:02.783Z,1009.91
2019-02-08T08:19:02.767Z,1009.89
2019-02-08T08:20:02.762Z,1009.93
2019-02-08T08:21:02.747Z,1009.92
2019-02-08T08:22:02.750Z,1009.92
2019-02-08T08:23:02.746Z,1009.99
2019-02-08T08:24:02.720Z,1009.93
2019-02-08T08:25:02.704Z,1009.96
2019-02-08T08:26:02.700Z,1009.91
2019-02-08T08:27:02.687Z,1009.85
2019-02-08T08:28:02.722Z,1009.83
2019-02-08T08:29:02.661Z,1009.88
2019-02-08T08:30:02.653Z,1009.88
2019-02-08T08:31:02.641Z,1009.84
2019-02-08T08:32:02.632Z,1009.83
2019-02-08T08:33:02.625Z,1009.86
2019-02-08T08:34:02.621Z,1009.82
2019-02-08T08:35:02.599Z,1009.83
2019-02-08T08:36:02.591Z,1009.86
2019-02-08T08:37:02.578Z,1009.81
2019-02-08T08:38:02.568Z,1009.82
2019-02-08T08:39:02.570Z,1009.78
2019-02-08T08:40:02.560Z,1009.83
2019-02-08T08:41:02.546Z,1009.78
2019-02-08T08:42:02.529Z,1009.79
2019-02-08T08:43:02.526Z,1009.81
2019-02-08T08:44:02.518Z,1009.80
2019-02-08T08:45:02.510Z,1009.76
2019-02-08T08:46:02.486Z,1009.80
2019-02-08T08:47:02.476Z,1009.74
2019-02-08T08:48:02.459Z,1009.86
2019-02-08T08:49:02.461Z,1009.87
2019-02-08T08:50:02.439Z,1009.86
2019-02-08T08:51:02.433Z,1009.88
2019-02-08T08:52:02.426Z,1009.93
2019-02-08T08:53:02.408Z,1009.95
2019-02-08T08:54:02.442Z,1009.91
2019-02-08T08:55:02.390Z,1009.94
2019-02-08T08:56:02.379Z,1009.96
2019-02-08T08:57:02.364Z,1009.94
2019-02-08T08:58:02.354Z,1009.94
2019-02-08T08:59:02.350Z,1009.92
2019-02-08T09:00:02.352Z,1009.89
2019-02-08T09:01:02.327Z,1009.95
2019-02-08T09:02:02.311Z,1009.98
2019-02-08T09:03:02.300Z,1010.00
2019-02-08T09:04:02.298Z,1009.95
2019-02-08T09:05:02.285Z,1009.97
2019-02-08T09:06:08.416Z,1009.94
2019-02-08T09:07:03.264Z,1009.95
2019-02-08T09:08:02.251Z,1009.91
2019-02-08T09:09:02.242Z,1009.95
2019-02-08T09:10:02.233Z,1009.91
2019-02-08T09:11:02.219Z,1009.90
2019-02-08T09:12:02.205Z,1009.83
2019-02-08T09:13:02.193Z,1009.90
2019-02-08T09:14:02.190Z,1009.86
2019-02-08T09:15:02.186Z,1009.90
2019-02-08T09:16:02.162Z,1009.88
2019-02-08T09:17:02.150Z,1009.88
2019-02-08T09:18:02.146Z,1009.81
2019-02-08T09:19:02.150Z,1009.75
2019-02-08T09:20:02.119Z,1009.76
2019-02-08T09:21:02.110Z,1009.77
2019-02-08T09:22:02.110Z,1009.78
2019-02-08T09:23:02.091Z,1009.72
2019-02-08T09:24:02.080Z,1009.70
2019-02-08T09:25:02.089Z,1009.69
2019-02-08T09:26:02.060Z,1009.65
2019-02-08T09:27:02.067Z,1009.61
2019-02-08T09:28:02.038Z,1009.66
2019-02-08T09:29:02.022Z,1009.67
2019-02-08T09:30:02.021Z,1009.64
2019-02-08T09:31:02.007Z,1009.63
2019-02-08T09:32:03.205Z,1009.55
2019-02-08T09:33:01.982Z,1009.59
2019-02-08T09:34:01.974Z,1009.65
2019-02-08T09:35:01.958Z,1009.63
2019-02-08T09:36:01.952Z,1009.59
2019-02-08T09:37:01.949Z,1009.58
2019-02-08T09:38:01.967Z,1009.60
2019-02-08T09:39:01.917Z,1009.56
2019-02-08T09:40:01.911Z,1009.63
2019-02-08T09:41:01.903Z,1009.57
2019-02-08T09:42:01.897Z,1009.50
2019-02-08T09:43:01.877Z,1009.58
2019-02-08T09:44:01.873Z,1009.56
2019-02-08T09:45:01.853Z,1009.43
2019-02-08T09:46:01.852Z,1009.44
2019-02-08T09:47:01.834Z,1009.48
2019-02-08T09:48:01.819Z,1009.58
2019-02-08T09:49:01.851Z,1009.51
2019-02-08T09:50:01.804Z,1009.50
2019-02-08T09:51:01.791Z,1009.52
2019-02-08T09:52:01.788Z,1009.50
2019-02-08T09:53:01.776Z,1009.51
2019-02-08T09:54:01.756Z,1009.49
2019-02-08T09:55:01.756Z,1009.54
2019-02-08T09:56:01.741Z,1009.55
2019-02-08T09:57:01.742Z,1009.54
2019-02-08T09:58:01.721Z,1009.52
2019-02-08T09:59:01.707Z,1009.48
2019-02-08T10:00:01.699Z,1009.53
2019-02-08T10:01:01.683Z,1009.52
2019-02-08T10:02:01.698Z,1009.51
2019-02-08T10:03:01.675Z,1009.52
2019-02-08T10:04:01.647Z,1009.50
2019-02-08T10:05:01.643Z,1009.49
2019-02-08T10:06:01.626Z,1009.47
2019-02-08T10:07:01.627Z,1009.56
2019-02-08T10:08:01.609Z,1009.51
2019-02-08T10:09:01.602Z,1009.56
2019-02-08T10:10:01.595Z,1009.57
2019-02-08T10:11:01.578Z,1009.63
2019-02-08T10:12:01.577Z,1009.59
2019-02-08T10:13:01.552Z,1009.58
2019-02-08T10:14:01.545Z,1009.68
2019-02-08T10:15:01.535Z,1009.59
2019-02-08T10:16:01.518Z,1009.52
2019-02-08T10:17:01.510Z,1009.53
2019-02-08T10:18:01.505Z,1009.53
2019-02-08T10:19:01.499Z,1009.59
2019-02-08T10:20:01.481Z,1009.63
2019-02-08T10:21:01.465Z,1009.57
2019-02-08T10:22:01.454Z,1009.50
2019-02-08T10:23:01.489Z,1009.56
2019-02-08T10:24:01.436Z,1009.54
2019-02-08T10:25:01.422Z,1009.43
2019-02-08T10:26:05.483Z,1009.40
2019-02-08T10:27:01.406Z,1009.43
2019-02-08T10:28:01.396Z,1009.43
2019-02-08T10:29:01.394Z,1009.40
2019-02-08T10:30:01.373Z,1009.44
2019-02-08T10:31:01.361Z,1009.44
2019-02-08T10:32:01.353Z,1009.47
2019-02-08T10:33:01.344Z,1009.48
2019-02-08T10:34:01.356Z,1009.59
2019-02-08T10:35:01.318Z,1009.48
2019-02-08T10:36:01.309Z,1009.54
2019-02-08T10:37:01.296Z,1009.56
2019-02-08T10:38:01.282Z,1009.51
2019-02-08T10:39:01.272Z,1009.52
2019-02-08T10:40:01.278Z,1009.55
2019-02-08T10:41:01.259Z,1009.51
2019-02-08T10:42:01.246Z,1009.53
2019-02-08T10:43:01.229Z,1009.52
2019-02-08T10:44:01.219Z,1009.43
2019-02-08T10:45:01.224Z,1009.45
2019-02-08T10:46:01.205Z,1009.48
2019-02-08T10:47:01.224Z,1009.43
2019-02-08T10:48:01.175Z,1009.43
2019-02-08T10:49:01.178Z,1009.40
2019-02-08T10:50:01.174Z,1009.39
2019-02-08T10:51:01.153Z,1009.36
2019-02-08T10:52:01.133Z,1009.36
2019-02-08T10:53:01.127Z,1009.35
2019-02-08T10:54:01.116Z,1009.30
2019-02-08T10:55:01.116Z,1009.31
2019-02-08T10:56:01.103Z,1009.29
2019-02-08T10:57:01.082Z,1009.31
2019-02-08T10:58:01.075Z,1009.29
2019-02-08T10:59:01.063Z,1009.20
2019-02-08T11:00:01.101Z,1009.24
2019-02-08T11:01:01.049Z,1009.29
2019-02-08T11:02:01.034Z,1009.22
2019-02-08T11:03:01.020Z,1009.20
2019-02-08T11:04:01.009Z,1009.18
2019-02-08T11:05:00.992Z,1009.21
2019-02-08T11:06:00.992Z,1009.23
2019-02-08T11:07:00.971Z,1009.23
2019-02-08T11:08:00.968Z,1009.19
2019-02-08T11:09:00.958Z,1009.19
2019-02-08T11:10:00.946Z,1009.12
2019-02-08T11:11:00.943Z,1009.09
2019-02-08T11:12:00.923Z,1009.08
2019-02-08T11:13:00.913Z,1009.12
2019-02-08T11:14:00.901Z,1009.09
2019-02-08T11:15:00.886Z,1009.07
2019-02-08T11:16:00.883Z,1009.13
2019-02-08T11:17:00.879Z,1009.12
2019-02-08T11:18:00.861Z,1009.08
2019-02-08T11:19:00.845Z,1009.10
2019-02-08T11:20:00.834Z,1009.07
2019-02-08T11:21:00.826Z,1009.11
2019-02-08T11:22:00.842Z,1009.11
2019-02-08T11:23:00.801Z,1009.09
2019-02-08T11:24:00.795Z,1009.07
2019-02-08T11:25:00.790Z,1009.06
2019-02-08T11:26:00.776Z,1009.05
2019-02-08T11:27:00.758Z,1009.02
2019-02-08T11:28:00.770Z,1009.10
2019-02-08T11:29:00.735Z,1009.03
2019-02-08T11:30:00.726Z,1008.97
2019-02-08T11:31:00.719Z,1008.99
2019-02-08T11:32:00.723Z,1008.96
2019-02-08T11:34:09.463Z,1008.96
2019-02-08T11:35:09.442Z,1008.93
2019-02-08T11:36:09.431Z,1009.01
2019-02-08T11:37:09.444Z,1009.03
2019-02-08T11:38:09.418Z,1008.95
2019-02-08T11:39:09.412Z,1008.92
2019-02-08T11:40:09.391Z,1008.90
2019-02-08T11:41:09.382Z,1008.95
2019-02-08T11:42:09.385Z,1008.92
2019-02-08T11:43:09.366Z,1008.94
2019-02-08T11:44:09.352Z,1008.88
2019-02-08T11:45:09.341Z,1008.86
2019-02-08T11:46:09.326Z,1008.89
2019-02-08T11:47:09.321Z,1008.85
2019-02-08T11:48:09.406Z,1008.81
2019-02-08T11:49:09.295Z,1008.83
2019-02-08T11:50:09.288Z,1008.83
2019-02-08T11:51:09.332Z,1008.81
2019-02-08T11:52:09.262Z,1008.79
2019-02-08T11:53:09.249Z,1008.86
2019-02-08T11:54:09.307Z,1008.82
2019-02-08T11:55:09.229Z,1008.87
2019-02-08T11:56:09.221Z,1008.90
2019-02-08T11:57:09.253Z,1008.89
2019-02-08T11:58:09.204Z,1008.85
2019-02-08T11:59:09.208Z,1008.87
2019-02-08T12:00:09.176Z,1008.80
2019-02-08T12:01:09.167Z,1008.82
2019-02-08T12:02:09.158Z,1008.80
2019-02-08T12:03:09.151Z,1008.82
2019-02-08T12:04:09.145Z,1008.79
2019-02-08T12:05:09.127Z,1008.82
2019-02-08T12:06:09.111Z,1008.77